createdAt,value
2022-10-08T00:02:20.420Z,10.40
2022-10-08T00:04:52.756Z,10.39
2022-10-08T00:07:25.235Z,10.39
2022-10-08T00:09:57.543Z,10.38
2022-10-08T00:12:30.506Z,10.43
2022-10-08T00:15:07.873Z,10.45
2022-10-08T00:17:40.151Z,10.46
2022-10-08T00:20:12.915Z,10.44
2022-10-08T00:22:45.479Z,10.40
2022-10-08T00:25:18.210Z,10.38
2022-10-08T00:27:51.216Z,10.23
2022-10-08T00:30:23.573Z,10.17
2022-10-08T00:32:59.832Z,10.15
2022-10-08T00:35:37.130Z,10.10
2022-10-08T00:38:09.458Z,10.04
2022-10-08T00:40:42.283Z,10.03
2022-10-08T00:43:16.421Z,9.93
2022-10-08T00:45:49.156Z,9.84
2022-10-08T00:48:25.155Z,9.77
2022-10-08T00:50:57.661Z,9.71
2022-10-08T00:53:29.976Z,9.66
2022-10-08T00:56:02.962Z,9.45
2022-10-08T00:58:37.279Z,9.39
2022-10-08T01:01:09.699Z,9.24
2022-10-08T01:03:42.109Z,9.11
2022-10-08T01:06:23.514Z,9.01
2022-10-08T01:09:03.456Z,8.93
2022-10-08T01:11:46.874Z,8.87
2022-10-08T01:14:33.019Z,8.89
2022-10-08T01:17:13.048Z,8.82
2022-10-08T01:20:10.224Z,8.73
2022-10-08T01:23:05.745Z,8.73
2022-10-08T01:25:50.161Z,8.69
2022-10-08T01:28:30.117Z,8.71
2022-10-08T01:31:07.865Z,8.59
2022-10-08T01:33:47.453Z,8.59
2022-10-08T01:36:23.437Z,8.60
2022-10-08T01:39:00.172Z,8.49
2022-10-08T01:41:34.431Z,8.51
2022-10-08T01:44:13.053Z,8.56
2022-10-08T01:46:47.721Z,8.46
2022-10-08T01:49:25.172Z,8.40
2022-10-08T01:52:02.611Z,8.40
2022-10-08T01:54:37.384Z,8.36
2022-10-08T01:57:10.843Z,8.36
2022-10-08T01:59:48.655Z,8.36
2022-10-08T02:02:22.912Z,8.26
2022-10-08T02:04:56.186Z,8.14
2022-10-08T02:07:31.665Z,8.12
2022-10-08T02:10:06.526Z,8.10
2022-10-08T02:12:40.458Z,7.98
2022-10-08T02:15:18.097Z,8.02
2022-10-08T02:17:56.507Z,7.93
2022-10-08T02:20:34.116Z,7.83
2022-10-08T02:23:10.483Z,8.00
2022-10-08T02:25:48.381Z,7.83
2022-10-08T02:28:28.598Z,7.87
2022-10-08T02:31:07.624Z,7.85
2022-10-08T02:33:46.207Z,7.78
2022-10-08T02:36:24.828Z,7.82
2022-10-08T02:39:01.139Z,7.76
2022-10-08T02:41:37.542Z,7.62
2022-10-08T02:44:26.741Z,7.63
2022-10-08T02:47:02.418Z,7.56
2022-10-08T02:49:39.423Z,7.61
2022-10-08T02:52:13.914Z,7.56
2022-10-08T02:54:50.242Z,7.47
2022-10-08T02:57:29.152Z,7.43
2022-10-08T03:00:02.046Z,7.37
2022-10-08T03:02:42.402Z,7.30
2022-10-08T03:05:17.359Z,7.37
2022-10-08T03:07:53.801Z,7.37
2022-10-08T03:10:29.782Z,7.30
2022-10-08T03:13:03.198Z,7.34
2022-10-08T03:15:36.567Z,7.16
2022-10-08T03:18:11.420Z,7.15
2022-10-08T03:20:48.631Z,7.10
2022-10-08T03:23:20.926Z,7.06
2022-10-08T03:25:53.550Z,7.09
2022-10-08T03:28:25.933Z,7.01
2022-10-08T03:30:58.396Z,6.94
2022-10-08T03:33:31.660Z,6.99
2022-10-08T03:36:04.674Z,6.99
2022-10-08T03:38:36.989Z,6.97
2022-10-08T03:41:09.483Z,6.87
2022-10-08T03:43:41.938Z,6.80
2022-10-08T03:46:16.122Z,6.68
2022-10-08T03:48:49.242Z,6.69
2022-10-08T03:51:23.079Z,6.71
2022-10-08T03:53:55.540Z,6.70
2022-10-08T03:56:27.843Z,6.55
2022-10-08T03:59:00.798Z,6.62
2022-10-08T04:01:33.250Z,6.59
2022-10-08T04:04:06.306Z,6.59
2022-10-08T04:06:38.599Z,6.50
2022-10-08T04:09:11.489Z,6.54
2022-10-08T04:11:43.769Z,6.54
2022-10-08T04:14:16.090Z,6.55
2022-10-08T04:16:48.593Z,6.54
2022-10-08T04:19:21.616Z,6.50
2022-10-08T04:21:53.932Z,6.52
2022-10-08T04:24:26.258Z,6.51
2022-10-08T04:26:58.570Z,6.46
2022-10-08T04:29:30.901Z,6.39
2022-10-08T04:32:03.231Z,6.35
2022-10-08T04:34:36.270Z,6.28
2022-10-08T04:37:08.593Z,6.25
2022-10-08T04:39:40.934Z,6.15
2022-10-08T04:42:13.275Z,6.25
2022-10-08T04:44:45.610Z,6.31
2022-10-08T04:47:17.886Z,6.30
2022-10-08T04:49:50.870Z,6.31
2022-10-08T04:52:23.280Z,6.26
2022-10-08T04:54:55.738Z,6.18
2022-10-08T04:57:28.038Z,6.18
2022-10-08T05:00:17.825Z,6.16
2022-10-08T05:02:51.535Z,6.20
2022-10-08T05:05:24.823Z,6.19
2022-10-08T05:07:57.202Z,6.25
2022-10-08T05:10:29.547Z,6.22
2022-10-08T05:13:02.022Z,6.07
2022-10-08T05:15:34.737Z,6.02
2022-10-08T05:18:07.111Z,6.08
2022-10-08T05:20:40.094Z,6.13
2022-10-08T05:23:12.498Z,6.18
2022-10-08T05:25:44.814Z,6.20
2022-10-08T05:28:17.190Z,6.19
2022-10-08T05:30:49.639Z,6.08
2022-10-08T05:33:21.914Z,6.15
2022-10-08T05:35:54.913Z,6.21
2022-10-08T05:38:34.001Z,6.25
2022-10-08T05:41:09.484Z,6.24
2022-10-08T05:43:42.193Z,6.22
2022-10-08T05:46:15.913Z,6.33
2022-10-08T05:48:48.327Z,6.37
2022-10-08T05:51:22.117Z,6.28
2022-10-08T05:53:56.291Z,6.40
2022-10-08T05:56:28.872Z,6.52
2022-10-08T05:59:01.163Z,6.66
2022-10-08T06:01:34.234Z,6.80
2022-10-08T06:04:08.898Z,6.79
2022-10-08T06:06:43.349Z,6.95
2022-10-08T06:09:17.867Z,7.21
2022-10-08T06:11:50.228Z,7.27
2022-10-08T06:14:23.656Z,7.55
2022-10-08T06:16:55.953Z,7.72
2022-10-08T06:19:28.411Z,7.91
2022-10-08T06:22:01.388Z,8.15
2022-10-08T06:24:33.707Z,8.37
2022-10-08T06:27:06.016Z,8.62
2022-10-08T06:29:38.323Z,8.79
2022-10-08T06:32:10.642Z,9.02
2022-10-08T06:34:42.944Z,9.25
2022-10-08T06:37:15.956Z,9.52
2022-10-08T06:39:48.649Z,9.75
2022-10-08T06:42:21.163Z,9.99
2022-10-08T06:44:53.516Z,10.21
2022-10-08T06:47:25.819Z,10.42
2022-10-08T06:49:58.403Z,10.65
2022-10-08T06:52:31.429Z,10.81
2022-10-08T06:55:04.437Z,10.99
2022-10-08T06:57:36.951Z,11.25
2022-10-08T07:00:10.528Z,11.43
2022-10-08T07:02:43.570Z,11.65
2022-10-08T07:05:16.116Z,11.84
2022-10-08T07:07:49.078Z,12.17
2022-10-08T07:10:21.419Z,12.38
2022-10-08T07:12:53.766Z,12.46
2022-10-08T07:15:26.068Z,12.65
2022-10-08T07:17:58.380Z,12.86
2022-10-08T07:20:30.766Z,13.01
2022-10-08T07:23:03.766Z,13.19
2022-10-08T07:25:36.087Z,13.25
2022-10-08T07:28:08.482Z,13.32
2022-10-08T07:30:40.764Z,13.45
2022-10-08T07:33:13.191Z,13.61
2022-10-08T07:35:45.571Z,13.69
2022-10-08T07:38:19.006Z,13.80
2022-10-08T07:40:53.654Z,13.96
2022-10-08T07:43:25.968Z,14.10
2022-10-08T07:45:58.335Z,14.12
2022-10-08T07:48:34.115Z,14.29
2022-10-08T07:51:11.015Z,14.39
2022-10-08T07:53:44.554Z,14.60
2022-10-08T07:56:19.199Z,14.68
2022-10-08T07:58:51.890Z,14.83
2022-10-08T08:01:27.585Z,15.03
2022-10-08T08:04:01.703Z,15.06
2022-10-08T08:06:38.437Z,15.25
2022-10-08T08:09:11.586Z,15.45
2022-10-08T08:11:45.361Z,15.60
2022-10-08T08:14:19.037Z,15.64
2022-10-08T08:16:51.436Z,15.70
2022-10-08T08:19:23.760Z,15.82
2022-10-08T08:21:56.734Z,15.83
2022-10-08T08:24:29.710Z,15.93
2022-10-08T08:27:02.017Z,16.04
2022-10-08T08:29:34.328Z,16.16
2022-10-08T08:32:06.661Z,16.34
2022-10-08T08:34:39.046Z,16.60
2022-10-08T08:37:11.339Z,16.70
2022-10-08T08:39:44.593Z,16.84
2022-10-08T08:42:28.198Z,16.93
2022-10-08T08:45:04.704Z,16.94
2022-10-08T08:47:41.379Z,17.09
2022-10-08T08:50:24.196Z,17.34
2022-10-08T08:52:56.959Z,17.28
2022-10-08T08:55:41.591Z,17.27
2022-10-08T08:58:26.036Z,17.30
2022-10-08T09:01:06.009Z,17.29
2022-10-08T09:03:42.695Z,17.15
2022-10-08T09:06:19.254Z,17.28
2022-10-08T09:08:56.481Z,17.24
2022-10-08T09:11:29.998Z,17.14
2022-10-08T09:14:15.809Z,17.33
2022-10-08T09:16:48.288Z,17.38
2022-10-08T09:19:21.118Z,17.49
2022-10-08T09:21:53.463Z,17.57
2022-10-08T09:24:29.044Z,17.79
2022-10-08T09:27:02.203Z,17.84
2022-10-08T09:29:34.760Z,17.96
2022-10-08T09:32:15.138Z,17.95
2022-10-08T09:34:48.018Z,18.17
2022-10-08T09:37:23.761Z,18.38
2022-10-08T09:40:21.714Z,18.51
2022-10-08T09:43:13.134Z,18.76
2022-10-08T09:45:46.545Z,18.65
2022-10-08T09:48:22.167Z,18.66
2022-10-08T09:51:01.135Z,18.81
2022-10-08T09:53:40.091Z,18.79
2022-10-08T09:56:13.932Z,18.79
2022-10-08T09:58:53.403Z,18.83
2022-10-08T10:01:26.480Z,19.05
2022-10-08T10:04:01.242Z,19.08
2022-10-08T10:06:36.513Z,19.18
2022-10-08T10:09:25.070Z,19.31
2022-10-08T10:12:00.136Z,19.39
2022-10-08T10:14:42.867Z,19.66
2022-10-08T10:17:22.699Z,19.65
2022-10-08T10:19:58.619Z,19.63
2022-10-08T10:22:39.278Z,19.61
2022-10-08T10:25:24.980Z,19.60
2022-10-08T10:28:01.135Z,19.65
2022-10-08T10:30:47.523Z,19.54
2022-10-08T10:33:25.066Z,19.57
2022-10-08T10:36:00.340Z,19.65
2022-10-08T10:38:42.949Z,19.75
2022-10-08T10:41:26.060Z,19.79
2022-10-08T10:44:02.571Z,19.62
2022-10-08T10:46:41.434Z,19.80
2022-10-08T10:49:15.547Z,19.79
2022-10-08T10:52:00.699Z,19.82
2022-10-08T10:54:48.555Z,19.82
2022-10-08T10:57:39.423Z,19.72
2022-10-08T11:00:19.888Z,19.76
2022-10-08T11:02:59.074Z,20.00
2022-10-08T11:05:35.114Z,20.07
2022-10-08T11:08:24.678Z,20.25
2022-10-08T11:11:21.724Z,20.16
2022-10-08T11:14:11.588Z,20.34
2022-10-08T11:16:57.286Z,20.44
2022-10-08T11:19:45.212Z,20.55
2022-10-08T11:22:24.607Z,20.58
2022-10-08T11:25:00.083Z,20.55
2022-10-08T11:27:48.602Z,20.36
2022-10-08T11:30:23.599Z,20.28
2022-10-08T11:32:58.190Z,20.40
2022-10-08T11:35:38.072Z,20.85
2022-10-08T11:38:17.155Z,21.10
2022-10-08T11:40:55.518Z,21.09
2022-10-08T11:43:33.437Z,21.15
2022-10-08T11:46:30.160Z,21.42
2022-10-08T11:49:24.571Z,21.33
2022-10-08T11:52:13.438Z,21.37
2022-10-08T11:54:55.063Z,21.45
2022-10-08T11:57:55.918Z,21.19
2022-10-08T12:00:45.022Z,21.28
2022-10-08T12:03:23.363Z,21.44
2022-10-08T12:05:58.368Z,21.30
2022-10-08T12:08:52.434Z,21.13
2022-10-08T12:11:47.671Z,21.31
2022-10-08T12:14:43.406Z,21.12
2022-10-08T12:17:16.466Z,21.39
2022-10-08T12:20:18.592Z,21.38
2022-10-08T12:23:03.273Z,21.55
2022-10-08T12:25:39.538Z,21.64
2022-10-08T12:28:51.146Z,21.66
2022-10-08T12:31:30.021Z,21.88
2022-10-08T12:34:13.554Z,21.94
2022-10-08T12:37:01.930Z,21.89
2022-10-08T12:39:39.909Z,21.70
2022-10-08T12:42:18.979Z,21.38
2022-10-08T12:45:02.987Z,21.53
2022-10-08T12:47:46.187Z,21.81
2022-10-08T12:50:41.923Z,21.65
2022-10-08T12:53:17.412Z,21.73
2022-10-08T12:55:53.479Z,21.99
2022-10-08T12:58:29.991Z,22.19
2022-10-08T13:01:05.309Z,22.28
2022-10-08T13:03:37.823Z,22.12
2022-10-08T13:06:31.622Z,22.00
2022-10-08T13:09:26.731Z,21.84
2022-10-08T13:12:03.574Z,21.59
2022-10-08T13:14:39.343Z,21.62
2022-10-08T13:17:27.684Z,21.13
2022-10-08T13:20:11.446Z,21.15
2022-10-08T13:22:44.368Z,21.07
2022-10-08T13:25:34.694Z,20.82
2022-10-08T13:28:09.034Z,20.78
2022-10-08T13:30:45.650Z,20.68
2022-10-08T13:33:21.067Z,20.42
2022-10-08T13:35:56.575Z,20.23
2022-10-08T13:38:31.759Z,20.10
2022-10-08T13:41:05.571Z,20.20
2022-10-08T13:43:38.963Z,20.14
2022-10-08T13:46:12.016Z,19.92
2022-10-08T13:48:44.512Z,20.01
2022-10-08T13:51:16.875Z,19.99
2022-10-08T13:53:51.631Z,20.09
2022-10-08T13:56:27.259Z,20.13
2022-10-08T13:58:59.583Z,20.10
2022-10-08T14:01:32.746Z,20.01
2022-10-08T14:04:05.210Z,19.95
2022-10-08T14:06:40.786Z,20.08
2022-10-08T14:09:16.246Z,20.12
2022-10-08T14:11:54.963Z,20.22
2022-10-08T14:14:28.220Z,20.14
2022-10-08T14:17:01.240Z,20.21
2022-10-08T14:19:33.555Z,20.17
2022-10-08T14:22:05.849Z,20.05
2022-10-08T14:24:38.343Z,20.09
2022-10-08T14:27:11.148Z,20.07
2022-10-08T14:29:43.676Z,20.04
2022-10-08T14:32:16.675Z,19.95
2022-10-08T14:34:49.004Z,20.08
2022-10-08T14:37:21.416Z,20.11
2022-10-08T14:39:53.739Z,19.95
2022-10-08T14:42:26.072Z,19.76
2022-10-08T14:44:58.546Z,19.78
2022-10-08T14:47:31.533Z,19.57
2022-10-08T14:50:04.566Z,19.62
2022-10-08T14:52:44.365Z,19.51
2022-10-08T14:55:17.291Z,19.50
2022-10-08T14:57:49.938Z,19.41
2022-10-08T15:00:22.257Z,19.38
2022-10-08T15:02:55.235Z,19.28
2022-10-08T15:05:27.683Z,19.23
2022-10-08T15:08:00.046Z,19.14
2022-10-08T15:10:33.696Z,19.04
2022-10-08T15:13:06.027Z,18.96
2022-10-08T15:15:41.609Z,18.86
2022-10-08T15:18:14.886Z,18.78
2022-10-08T15:20:54.340Z,18.76
2022-10-08T15:23:26.803Z,18.77
2022-10-08T15:26:00.686Z,18.74
2022-10-08T15:28:35.734Z,18.68
2022-10-08T15:31:11.014Z,18.60
2022-10-08T15:33:46.178Z,18.52
2022-10-08T15:36:20.451Z,18.56
2022-10-08T15:38:57.578Z,18.51
2022-10-08T15:41:33.760Z,18.44
2022-10-08T15:44:08.495Z,18.35
2022-10-08T15:46:40.794Z,18.21
2022-10-08T15:49:14.262Z,18.09
2022-10-08T15:51:46.902Z,17.96
2022-10-08T15:54:20.791Z,17.81
2022-10-08T15:56:53.259Z,17.68
2022-10-08T15:59:25.574Z,17.66
2022-10-08T16:01:58.098Z,17.57
2022-10-08T16:04:31.221Z,17.43
2022-10-08T16:07:03.634Z,17.37
2022-10-08T16:09:35.975Z,17.28
2022-10-08T16:12:08.282Z,17.19
2022-10-08T16:14:40.627Z,17.08
2022-10-08T16:17:13.203Z,16.95
2022-10-08T16:19:46.287Z,16.85
2022-10-08T16:22:18.558Z,16.72
2022-10-08T16:24:50.850Z,16.56
2022-10-08T16:27:23.152Z,16.44
2022-10-08T16:29:55.474Z,16.22
2022-10-08T16:32:27.795Z,16.07
2022-10-08T16:35:00.817Z,16.00
2022-10-08T16:37:33.123Z,15.90
2022-10-08T16:40:06.383Z,15.75
2022-10-08T16:42:38.973Z,15.55
2022-10-08T16:45:11.454Z,15.38
2022-10-08T16:47:43.746Z,15.29
2022-10-08T16:50:17.411Z,15.13
2022-10-08T16:52:50.031Z,14.99
2022-10-08T16:55:22.807Z,14.94
2022-10-08T16:57:55.191Z,14.78
2022-10-08T17:00:27.842Z,14.71
2022-10-08T17:03:00.895Z,14.64
2022-10-08T17:05:33.931Z,14.60
2022-10-08T17:08:06.420Z,14.55
2022-10-08T17:10:38.887Z,14.34
2022-10-08T17:13:11.183Z,14.18
2022-10-08T17:15:43.565Z,14.08
2022-10-08T17:18:15.847Z,14.11
2022-10-08T17:20:49.539Z,14.00
2022-10-08T17:23:21.986Z,13.98
2022-10-08T17:25:55.386Z,13.87
2022-10-08T17:28:29.849Z,13.75
2022-10-08T17:31:03.547Z,13.62
2022-10-08T17:33:36.352Z,13.60
2022-10-08T17:36:12.375Z,13.48
2022-10-08T17:38:46.390Z,13.50
2022-10-08T17:41:20.766Z,13.35
2022-10-08T17:43:55.458Z,13.26
2022-10-08T17:46:29.492Z,13.31
2022-10-08T17:49:02.432Z,13.21
2022-10-08T17:51:35.427Z,13.11
2022-10-08T17:54:11.325Z,13.09
2022-10-08T17:56:43.903Z,12.93
2022-10-08T17:59:17.629Z,12.83
2022-10-08T18:01:50.113Z,12.78
2022-10-08T18:04:22.438Z,12.69
2022-10-08T18:06:59.840Z,12.62
2022-10-08T18:09:35.049Z,12.57
2022-10-08T18:12:07.586Z,12.59
2022-10-08T18:14:40.079Z,12.53
2022-10-08T18:17:12.392Z,12.39
2022-10-08T18:19:44.688Z,12.32
2022-10-08T18:22:21.257Z,12.12
2022-10-08T18:24:53.747Z,12.06
2022-10-08T18:27:26.082Z,12.03
2022-10-08T18:29:58.399Z,11.99
2022-10-08T18:32:30.716Z,11.89
2022-10-08T18:35:03.342Z,11.86
2022-10-08T18:37:36.335Z,11.92
2022-10-08T18:40:09.191Z,11.86
2022-10-08T18:42:41.515Z,11.78
2022-10-08T18:45:13.899Z,11.82
2022-10-08T18:47:46.214Z,11.72
2022-10-08T18:50:18.865Z,11.61
2022-10-08T18:52:51.910Z,11.61
2022-10-08T18:55:24.225Z,11.64
2022-10-08T18:57:56.582Z,11.57
2022-10-08T19:00:28.904Z,11.59
2022-10-08T19:03:01.407Z,11.58
2022-10-08T19:05:37.240Z,11.46
2022-10-08T19:08:10.260Z,11.49
2022-10-08T19:10:43.171Z,11.42
2022-10-08T19:13:15.737Z,11.38
2022-10-08T19:15:48.087Z,11.36
2022-10-08T19:18:20.455Z,11.33
2022-10-08T19:20:52.760Z,11.34
2022-10-08T19:23:25.759Z,11.30
2022-10-08T19:25:58.099Z,11.36
2022-10-08T19:28:30.876Z,11.19
2022-10-08T19:31:11.501Z,11.09
2022-10-08T19:33:48.460Z,11.08
2022-10-08T19:36:22.011Z,11.05
2022-10-08T19:38:57.098Z,10.99
2022-10-08T19:41:30.144Z,11.01
2022-10-08T19:44:03.249Z,10.98
2022-10-08T19:46:36.071Z,10.99
2022-10-08T19:49:09.120Z,10.91
2022-10-08T19:51:41.836Z,10.93
2022-10-08T19:54:15.768Z,10.89
2022-10-08T19:56:48.291Z,10.83
2022-10-08T19:59:21.022Z,10.79
2022-10-08T20:01:53.404Z,10.76
2022-10-08T20:04:25.795Z,10.71
2022-10-08T20:07:00.542Z,10.69
2022-10-08T20:09:35.384Z,10.70
2022-10-08T20:12:07.799Z,10.75
2022-10-08T20:14:40.123Z,10.66
2022-10-08T20:17:12.471Z,10.60
2022-10-08T20:19:44.823Z,10.60
2022-10-08T20:22:17.138Z,10.61
2022-10-08T20:24:50.167Z,10.60
2022-10-08T20:27:22.678Z,10.54
2022-10-08T20:29:55.030Z,10.47
2022-10-08T20:32:27.319Z,10.49
2022-10-08T20:34:59.661Z,10.39
2022-10-08T20:37:32.803Z,10.38
2022-10-08T20:40:06.707Z,10.38
2022-10-08T20:42:39.039Z,10.38
2022-10-08T20:45:11.616Z,10.39
2022-10-08T20:47:43.960Z,10.35
2022-10-08T20:50:16.299Z,10.39
2022-10-08T20:52:49.036Z,10.30
2022-10-08T20:55:22.325Z,10.32
2022-10-08T20:57:54.589Z,10.27
2022-10-08T21:00:26.959Z,10.24
2022-10-08T21:02:59.407Z,10.19
2022-10-08T21:05:37.552Z,10.19
2022-10-08T21:08:10.191Z,10.24
2022-10-08T21:10:43.174Z,10.17
2022-10-08T21:13:15.574Z,10.19
2022-10-08T21:15:47.972Z,10.17
2022-10-08T21:18:20.307Z,10.17
2022-10-08T21:20:52.998Z,10.08
2022-10-08T21:23:25.320Z,10.03
2022-10-08T21:26:06.823Z,10.05
2022-10-08T21:28:40.162Z,10.11
2022-10-08T21:31:14.092Z,9.93
2022-10-08T21:33:48.896Z,9.92
2022-10-08T21:36:23.291Z,9.93
2022-10-08T21:38:56.246Z,9.89
2022-10-08T21:41:30.722Z,9.83
2022-10-08T21:44:05.679Z,9.80
2022-10-08T21:46:40.541Z,9.82
2022-10-08T21:49:14.808Z,9.85
2022-10-08T21:51:47.438Z,9.80
2022-10-08T21:54:19.693Z,9.82
2022-10-08T21:56:52.666Z,9.78
2022-10-08T21:59:25.892Z,9.85
2022-10-08T22:01:58.567Z,9.83
2022-10-08T22:04:30.928Z,9.75
2022-10-08T22:07:04.586Z,9.79
2022-10-08T22:09:37.063Z,9.77
2022-10-08T22:12:10.044Z,9.66
2022-10-08T22:14:42.446Z,9.63
2022-10-08T22:17:14.790Z,9.60
2022-10-08T22:19:47.081Z,9.63
2022-10-08T22:22:19.411Z,9.60
2022-10-08T22:24:51.702Z,9.54
2022-10-08T22:27:24.694Z,9.50
2022-10-08T22:29:57.029Z,9.51
2022-10-08T22:32:29.353Z,9.50
2022-10-08T22:35:01.628Z,9.43
2022-10-08T22:37:33.948Z,9.41
2022-10-08T22:40:07.379Z,9.36
2022-10-08T22:42:40.366Z,9.40
2022-10-08T22:45:12.712Z,9.44
2022-10-08T22:47:45.147Z,9.37
2022-10-08T22:50:18.066Z,9.36
2022-10-08T22:52:50.732Z,9.36
2022-10-08T22:55:23.181Z,9.36
2022-10-08T22:57:56.545Z,9.36
2022-10-08T23:00:28.856Z,9.25
2022-10-08T23:03:01.207Z,9.27
2022-10-08T23:05:33.556Z,9.25
2022-10-08T23:08:05.905Z,9.32
2022-10-08T23:10:38.235Z,9.30
2022-10-08T23:13:11.240Z,9.23
2022-10-08T23:15:43.698Z,9.18
2022-10-08T23:18:16.038Z,9.16
2022-10-08T23:20:48.379Z,9.16
2022-10-08T23:23:20.732Z,9.15
2022-10-08T23:25:53.937Z,9.15
2022-10-08T23:28:27.422Z,9.16
2022-10-08T23:31:07.253Z,9.12
2022-10-08T23:33:42.329Z,9.13
2022-10-08T23:36:16.316Z,9.17
2022-10-08T23:38:49.111Z,9.14
2022-10-08T23:41:21.625Z,9.04
2022-10-08T23:43:56.786Z,9.03
2022-10-08T23:46:30.321Z,9.06
2022-10-08T23:49:02.847Z,9.08
2022-10-08T23:51:35.372Z,9.05
2022-10-08T23:54:07.707Z,9.07
2022-10-08T23:56:40.034Z,9.06
2022-10-08T23:59:13.036Z,8.94
